Time;durP1;ratioP1;P1;durP2;ratioP2;P2;SDS_P1;SDS_P2;PMS_P1;PMS_P2;Temp;Humidity;BMP_temperature;BMP_pressure;BME280_temperature;BME280_humidity;BME280_pressure;Samples;Min_cycle;Max_cycle;Signal;HPM_P1;HPM_P2
2024/02/28 00:00:56;;;;;;;22.73;21.63;;;20.60;51.10;;;;;;4984044;28;20454;-63
2024/02/28 00:03:23;;;;;;;22.80;21.83;;;20.60;51.20;;;;;;4981919;28;20940;-63
2024/02/28 00:05:50;;;;;;;23.70;22.60;;;20.60;51.20;;;;;;4978856;28;20443;-63
2024/02/28 00:08:19;;;;;;;23.30;22.10;;;20.60;51.30;;;;;;4981712;28;20875;-63
2024/02/28 00:10:45;;;;;;;22.43;21.43;;;20.60;51.30;;;;;;4980568;28;20486;-63
2024/02/28 00:13:12;;;;;;;22.37;21.37;;;20.60;51.30;;;;;;4988803;28;20442;-63
2024/02/28 00:15:39;;;;;;;22.87;21.60;;;20.60;51.30;;;;;;4980844;28;20440;-63
2024/02/28 00:18:07;;;;;;;22.93;21.93;;;20.60;51.30;;;;;;4987371;28;20449;-63
2024/02/28 00:20:34;;;;;;;22.53;21.53;;;20.60;51.40;;;;;;4983921;28;20529;-63
2024/02/28 00:23:01;;;;;;;21.87;20.90;;;20.60;51.30;;;;;;4984076;28;20446;-63
2024/02/28 00:25:27;;;;;;;22.67;21.67;;;20.50;51.40;;;;;;4981151;28;20459;-63
2024/02/28 00:27:54;;;;;;;22.20;21.20;;;20.50;51.30;;;;;;4985740;28;20450;-63
2024/02/28 00:30:21;;;;;;;22.60;21.60;;;20.50;51.30;;;;;;4981728;28;20458;-63
2024/02/28 00:32:47;;;;;;;22.50;21.50;;;20.50;51.40;;;;;;4980553;28;20937;-63
2024/02/28 00:35:15;;;;;;;22.23;21.23;;;20.50;51.40;;;;;;4981395;28;20444;-63
2024/02/28 00:37:42;;;;;;;22.97;21.87;;;20.50;51.40;;;;;;4981924;28;20956;-63
2024/02/28 00:40:10;;;;;;;23.90;22.80;;;20.40;51.30;;;;;;4984338;28;20463;-64
2024/02/28 00:42:37;;;;;;;23.07;21.93;;;20.50;51.50;;;;;;4987881;28;20438;-64
2024/02/28 00:45:04;;;;;;;22.57;21.47;;;20.40;51.30;;;;;;4980481;28;20453;-63
2024/02/28 00:47:31;;;;;;;22.50;21.60;;;20.40;51.40;;;;;;4983863;28;20443;-63
2024/02/28 00:49:58;;;;;;;22.40;21.40;;;20.40;51.30;;;;;;4983977;28;20992;-63
2024/02/28 00:52:26;;;;;;;22.00;21.10;;;20.40;51.40;;;;;;4986494;28;20858;-64
2024/02/28 00:54:53;;;;;;;22.60;21.60;;;20.40;51.40;;;;;;4987672;28;20447;-63
2024/02/28 00:57:19;;;;;;;23.33;22.33;;;20.40;51.40;;;;;;4985407;28;20454;-63
2024/02/28 00:59:46;;;;;;;22.60;21.50;;;20.40;51.40;;;;;;4984124;28;20467;-63
2024/02/28 01:02:13;;;;;;;22.00;21.00;;;20.40;51.40;;;;;;4984405;28;20781;-64
2024/02/28 01:04:40;;;;;;;22.60;21.50;;;20.40;51.50;;;;;;4987607;28;20511;-63
2024/02/28 01:07:07;;;;;;;22.57;21.57;;;20.30;51.40;;;;;;4986737;28;20438;-63
2024/02/28 01:09:35;;;;;;;22.50;21.50;;;20.40;51.50;;;;;;4976031;28;20856;-64
2024/02/28 01:12:02;;;;;;;28.00;26.90;;;20.30;51.40;;;;;;4983781;28;20487;-63
2024/02/28 01:14:28;;;;;;;27.90;26.80;;;20.30;51.40;;;;;;4986324;28;20439;-62
2024/02/28 01:16:55;;;;;;;26.33;25.30;;;20.30;51.40;;;;;;4987487;28;20443;-63
2024/02/28 01:19:22;;;;;;;26.30;25.20;;;20.30;51.40;;;;;;4985340;28;20467;-62
2024/02/28 01:21:48;;;;;;;22.40;21.40;;;20.30;51.40;;;;;;4983667;28;20780;-63
2024/02/28 01:24:15;;;;;;;22.80;21.80;;;20.30;51.50;;;;;;4983934;28;20456;-63
2024/02/28 01:26:43;;;;;;;22.77;21.77;;;20.30;51.50;;;;;;4987475;28;20448;-63
2024/02/28 01:29:10;;;;;;;22.90;21.80;;;20.30;51.50;;;;;;4986869;28;20463;-64
2024/02/28 01:31:37;;;;;;;21.97;21.00;;;20.20;51.40;;;;;;4983415;28;20476;-63
2024/02/28 01:34:03;;;;;;;22.40;21.40;;;20.20;51.40;;;;;;4983256;28;20953;-62
2024/02/28 01:36:30;;;;;;;22.40;21.40;;;20.20;51.40;;;;;;4986539;28;20443;-63
2024/02/28 01:38:57;;;;;;;22.93;21.90;;;20.20;51.40;;;;;;4986872;28;20463;-64
2024/02/28 01:41:23;;;;;;;22.80;21.80;;;20.20;51.40;;;;;;4984927;28;20815;-63
2024/02/28 01:43:53;;;;;;;22.20;21.20;;;20.30;51.40;;;;;;4981088;28;20470;-63
2024/02/28 01:46:26;;;;;;;23.10;22.00;;;20.20;51.40;;;;;;4985472;28;20443;-63
2024/02/28 01:48:53;;;;;;;22.17;21.17;;;20.20;51.40;;;;;;4983372;28;20456;-64
2024/02/28 01:51:21;;;;;;;22.37;21.37;;;20.20;51.40;;;;;;4984244;28;20480;-62
2024/02/28 01:53:49;;;;;;;23.03;22.03;;;20.20;51.40;;;;;;4986271;28;20810;-63
2024/02/28 01:56:16;;;;;;;22.60;21.60;;;20.20;51.50;;;;;;4986169;28;20461;-63
2024/02/28 01:58:46;;;;;;;23.93;22.63;;;20.20;51.50;;;;;;4983391;28;20624;-63
2024/02/28 02:01:15;;;;;;;23.20;22.10;;;20.20;51.40;;;;;;4983167;28;20436;-63
2024/02/28 02:03:43;;;;;;;23.67;22.57;;;20.20;51.50;;;;;;4986024;28;20502;-62
2024/02/28 02:06:10;;;;;;;22.73;21.73;;;20.20;51.50;;;;;;4986729;28;20439;-63
2024/02/28 02:08:38;;;;;;;22.00;21.10;;;20.20;51.50;;;;;;4975144;28;20475;-63
2024/02/28 02:11:05;;;;;;;22.63;21.53;;;20.10;51.40;;;;;;4982942;28;20451;-62
2024/02/28 02:13:32;;;;;;;23.10;22.00;;;20.10;51.40;;;;;;4980097;28;21014;-63
2024/02/28 02:15:59;;;;;;;22.47;21.47;;;20.20;51.50;;;;;;4986659;28;20446;-63
2024/02/28 02:18:27;;;;;;;22.47;21.47;;;20.20;51.50;;;;;;4984618;28;20446;-63
2024/02/28 02:20:59;;;;;;;23.60;22.50;;;20.10;51.40;;;;;;4982736;28;20959;-63
2024/02/28 02:23:27;;;;;;;23.30;22.20;;;20.10;51.50;;;;;;4979270;28;20475;-63
2024/02/28 02:25:54;;;;;;;22.27;21.27;;;20.10;51.40;;;;;;4986311;28;20443;-63
2024/02/28 02:28:21;;;;;;;22.50;21.60;;;20.10;51.50;;;;;;4985126;28;20435;-63
2024/02/28 02:30:47;;;;;;;23.23;22.10;;;20.10;51.60;;;;;;4982516;28;20443;-63
2024/02/28 02:33:14;;;;;;;22.20;21.20;;;20.10;51.60;;;;;;4981950;28;20479;-63
2024/02/28 02:35:41;;;;;;;22.40;21.50;;;20.10;51.60;;;;;;4986289;28;20443;-61
2024/02/28 02:38:07;;;;;;;22.10;21.10;;;20.10;51.60;;;;;;4986227;28;20439;-63
2024/02/28 02:40:35;;;;;;;23.10;22.00;;;20.10;51.60;;;;;;4982684;28;20452;-63
2024/02/28 02:43:02;;;;;;;23.30;22.30;;;20.10;51.60;;;;;;4981982;28;20900;-63
2024/02/28 02:45:29;;;;;;;22.67;21.57;;;20.10;51.60;;;;;;4984581;28;20447;-63
2024/02/28 02:47:56;;;;;;;22.63;21.63;;;20.10;51.60;;;;;;4985814;28;20439;-61
2024/02/28 02:50:22;;;;;;;21.60;20.70;;;20.00;51.50;;;;;;4970474;28;20838;-63
2024/02/28 02:52:49;;;;;;;23.30;22.03;;;20.00;51.50;;;;;;4985856;28;20490;-63
2024/02/28 02:55:16;;;;;;;21.53;20.63;;;20.10;51.60;;;;;;4985609;28;20443;-63
2024/02/28 02:57:44;;;;;;;22.27;21.37;;;20.00;51.50;;;;;;4982314;28;20447;-63
2024/02/28 03:00:11;;;;;;;22.03;21.03;;;20.00;51.50;;;;;;4980462;28;20558;-63
2024/02/28 03:02:39;;;;;;;22.17;21.17;;;20.00;51.60;;;;;;4985595;28;20450;-64
2024/02/28 03:05:07;;;;;;;22.43;21.43;;;20.00;51.60;;;;;;4985732;28;20447;-63
2024/02/28 03:07:34;;;;;;;21.90;20.90;;;20.00;51.60;;;;;;4982836;28;20447;-63
2024/02/28 03:10:00;;;;;;;22.17;21.17;;;20.10;52.20;;;;;;4980899;28;20467;-64
2024/02/28 03:12:27;;;;;;;22.20;21.17;;;20.00;51.70;;;;;;4975955;28;20488;-63
2024/02/28 03:14:55;;;;;;;22.70;21.70;;;20.00;51.70;;;;;;4985343;28;20450;-61
2024/02/28 03:17:21;;;;;;;22.17;21.23;;;20.00;51.70;;;;;;4984373;28;20454;-63
2024/02/28 03:19:47;;;;;;;23.60;22.50;;;20.00;51.60;;;;;;4981296;28;20459;-62
2024/02/28 03:22:14;;;;;;;22.20;21.20;;;20.00;51.70;;;;;;4981750;28;20204;-62
2024/02/28 03:24:41;;;;;;;22.70;21.73;;;20.00;51.70;;;;;;4974008;28;20452;-63
2024/02/28 03:27:08;;;;;;;22.67;21.67;;;20.00;51.70;;;;;;4981682;28;20930;-63
2024/02/28 03:29:35;;;;;;;22.20;21.20;;;20.00;51.70;;;;;;4981985;28;20467;-64
2024/02/28 03:32:03;;;;;;;23.07;22.07;;;20.00;51.70;;;;;;4981252;28;20488;-64
2024/02/28 03:34:30;;;;;;;23.60;22.60;;;20.00;51.70;;;;;;4983451;28;20949;-63
2024/02/28 03:36:57;;;;;;;23.77;22.60;;;20.00;51.70;;;;;;4985011;28;20447;-63
2024/02/28 03:39:24;;;;;;;22.50;21.60;;;20.00;51.70;;;;;;4983743;28;20471;-63
2024/02/28 03:41:50;;;;;;;23.23;22.23;;;20.00;51.70;;;;;;4980771;28;20471;-63
2024/02/28 03:44:17;;;;;;;22.60;21.67;;;20.00;51.70;;;;;;4981319;28;20447;-63
2024/02/28 03:46:44;;;;;;;23.27;22.23;;;19.90;51.60;;;;;;4984731;28;20450;-63
2024/02/28 03:49:12;;;;;;;22.60;21.60;;;20.00;51.70;;;;;;4984817;28;20473;-62
2024/02/28 03:51:40;;;;;;;22.63;21.63;;;19.90;51.60;;;;;;4980226;28;20440;-63
2024/02/28 03:54:07;;;;;;;23.70;22.70;;;20.00;51.80;;;;;;4981277;28;20796;-63
2024/02/28 03:56:35;;;;;;;22.80;21.70;;;19.90;51.70;;;;;;4982776;28;20443;-63
2024/02/28 03:59:01;;;;;;;24.13;22.90;;;20.00;52.30;;;;;;4984386;28;20467;-64
2024/02/28 04:01:28;;;;;;;28.27;27.17;;;19.90;51.80;;;;;;4982540;28;20447;-63
2024/02/28 04:03:55;;;;;;;24.63;23.53;;;19.90;51.70;;;;;;4981117;28;20821;-63
2024/02/28 04:06:23;;;;;;;23.63;22.63;;;19.90;51.80;;;;;;4980774;28;20463;-63
2024/02/28 04:08:49;;;;;;;25.00;23.70;;;19.90;51.90;;;;;;4984251;28;20478;-63
2024/02/28 04:11:16;;;;;;;23.77;22.67;;;19.90;51.80;;;;;;4984014;28;20458;-63
2024/02/28 04:13:43;;;;;;;22.87;21.87;;;19.90;51.90;;;;;;4983813;28;21026;-62
2024/02/28 04:16:10;;;;;;;24.20;23.00;;;19.90;51.90;;;;;;4984206;28;20443;-64
2024/02/28 04:18:37;;;;;;;23.27;22.10;;;19.90;51.90;;;;;;4983308;28;20467;-63
2024/02/28 04:21:04;;;;;;;22.57;21.57;;;19.90;51.90;;;;;;4984003;28;20443;-63
2024/02/28 04:23:32;;;;;;;23.20;22.20;;;19.90;51.90;;;;;;4982746;28;20928;-63
2024/02/28 04:25:59;;;;;;;23.13;22.03;;;19.90;51.90;;;;;;4980883;28;20471;-63
2024/02/28 04:28:25;;;;;;;24.30;23.20;;;19.90;51.90;;;;;;4980871;28;20451;-63
2024/02/28 04:30:52;;;;;;;23.60;22.47;;;19.90;52.00;;;;;;4983832;28;20804;-63
2024/02/28 04:33:19;;;;;;;22.87;21.67;;;19.90;52.00;;;;;;4983906;28;20490;-63
2024/02/28 04:35:46;;;;;;;23.30;22.20;;;19.90;52.00;;;;;;4980849;28;21219;-62
2024/02/28 04:38:12;;;;;;;23.03;22.00;;;19.90;52.00;;;;;;4979857;28;20820;-62
2024/02/28 04:40:40;;;;;;;22.40;21.30;;;19.90;52.10;;;;;;4982968;28;20450;-63
2024/02/28 04:43:07;;;;;;;23.13;22.03;;;19.90;52.10;;;;;;4984343;28;20443;-63
2024/02/28 04:45:34;;;;;;;22.57;21.57;;;19.90;52.20;;;;;;4982127;28;20446;-63
2024/02/28 04:48:00;;;;;;;23.83;22.63;;;19.90;52.20;;;;;;4979869;28;20455;-63
2024/02/28 04:50:27;;;;;;;23.63;22.53;;;19.90;52.20;;;;;;4980638;28;20468;-63
2024/02/28 04:52:55;;;;;;;23.20;22.10;;;19.90;52.30;;;;;;4983957;28;20486;-63
2024/02/28 04:55:22;;;;;;;24.63;23.43;;;19.90;52.30;;;;;;4983493;28;20443;-63
2024/02/28 04:57:50;;;;;;;23.83;22.73;;;19.90;52.20;;;;;;4975765;28;20439;-63
2024/02/28 05:00:17;;;;;;;25.13;23.77;;;19.90;52.20;;;;;;4983627;28;20466;-63
2024/02/28 05:02:44;;;;;;;24.70;23.50;;;19.90;52.20;;;;;;4980653;28;20447;-61
2024/02/28 05:05:10;;;;;;;25.47;24.07;;;19.90;52.20;;;;;;4978482;28;20475;-61
2024/02/28 05:07:37;;;;;;;25.10;23.80;;;19.90;52.20;;;;;;4981399;28;20824;-63
2024/02/28 05:10:05;;;;;;;24.63;23.33;;;19.90;52.20;;;;;;4979868;28;20463;-63
2024/02/28 05:12:31;;;;;;;24.60;23.40;;;19.90;52.20;;;;;;4981978;28;20856;-63
2024/02/28 05:14:59;;;;;;;25.30;23.90;;;19.90;52.30;;;;;;4975843;28;20962;-62
2024/02/28 05:17:27;;;;;;;24.97;23.67;;;19.90;52.40;;;;;;4982891;28;20451;-61
2024/02/28 05:19:54;;;;;;;26.27;24.77;;;19.90;52.30;;;;;;4980383;28;20468;-63
2024/02/28 05:22:20;;;;;;;25.23;23.93;;;19.90;52.30;;;;;;4979327;28;20447;-63
2024/02/28 05:24:47;;;;;;;25.87;24.47;;;19.90;52.30;;;;;;4975186;28;20451;-63
2024/02/28 05:27:14;;;;;;;25.63;24.33;;;19.90;52.40;;;;;;4984248;28;20802;-63
2024/02/28 05:29:42;;;;;;;25.77;24.03;;;19.90;52.40;;;;;;4986451;28;20472;-62
2024/02/28 05:32:10;;;;;;;25.43;24.10;;;19.90;52.40;;;;;;4982184;28;20440;-62
2024/02/28 05:34:37;;;;;;;26.27;24.97;;;19.90;52.40;;;;;;4985959;28;20915;-62
2024/02/28 05:37:03;;;;;;;24.27;22.97;;;19.90;52.50;;;;;;4984336;28;20439;-63
2024/02/28 05:39:30;;;;;;;25.90;24.60;;;19.90;52.50;;;;;;4984594;28;20460;-63
2024/02/28 05:41:57;;;;;;;26.10;24.50;;;19.90;52.50;;;;;;4983940;28;20447;-62
2024/02/28 05:44:25;;;;;;;26.37;24.83;;;19.90;52.50;;;;;;4983695;28;20999;-63
2024/02/28 05:46:52;;;;;;;27.30;25.90;;;19.90;52.50;;;;;;4987009;28;20447;-63
2024/02/28 05:49:20;;;;;;;25.70;24.30;;;19.90;52.40;;;;;;4986772;28;20462;-62
2024/02/28 05:51:47;;;;;;;28.70;27.47;;;19.80;52.30;;;;;;4982520;28;20455;-63
2024/02/28 05:54:14;;;;;;;28.80;27.10;;;19.90;52.50;;;;;;4978846;28;20484;-63
2024/02/28 05:56:40;;;;;;;25.60;24.30;;;19.90;52.70;;;;;;4985930;28;20452;-63
2024/02/28 05:59:07;;;;;;;25.83;24.33;;;19.90;54.20;;;;;;4986569;28;20478;-63
2024/02/28 06:01:34;;;;;;;27.40;25.63;;;19.90;54.30;;;;;;4984788;28;20443;-62
2024/02/28 06:04:01;;;;;;;31.20;29.00;;;19.90;54.40;;;;;;4976732;28;20445;-62
2024/02/28 06:06:29;;;;;;;29.17;26.70;;;19.90;54.80;;;;;;4984743;28;21051;-63
2024/02/28 06:08:56;;;;;;;26.20;24.60;;;19.90;55.50;;;;;;4983513;28;20467;-63
2024/02/28 06:11:23;;;;;;;27.80;25.87;;;19.90;55.70;;;;;;4983187;28;20451;-63
2024/02/28 06:13:51;;;;;;;28.87;26.57;;;19.90;55.80;;;;;;4983349;28;20907;-62
2024/02/28 06:16:18;;;;;;;29.30;27.10;;;19.90;55.90;;;;;;4983186;28;20477;-61
2024/02/28 06:18:45;;;;;;;26.83;25.13;;;19.90;55.80;;;;;;4986175;28;20832;-61
2024/02/28 06:21:12;;;;;;;27.27;25.27;;;19.90;55.80;;;;;;4986347;28;20454;-62
2024/02/28 06:23:40;;;;;;;26.87;25.40;;;19.90;55.80;;;;;;4984583;28;20439;-62
2024/02/28 06:26:07;;;;;;;28.67;26.93;;;20.00;55.90;;;;;;4983386;28;20811;-63
2024/02/28 06:28:33;;;;;;;25.77;24.27;;;19.90;55.70;;;;;;4984280;28;20531;-62
2024/02/28 06:31:00;;;;;;;27.93;26.13;;;19.90;55.60;;;;;;4986285;28;20446;-62
2024/02/28 06:33:27;;;;;;;28.03;25.90;;;20.00;55.60;;;;;;4985807;28;20485;-62
2024/02/28 06:35:53;;;;;;;26.17;24.40;;;20.00;55.60;;;;;;4982469;28;20826;-62
2024/02/28 06:38:20;;;;;;;27.00;25.40;;;20.00;55.50;;;;;;4983050;28;20440;-63
2024/02/28 06:40:48;;;;;;;28.03;26.33;;;20.00;55.40;;;;;;4985337;28;20443;-62
2024/02/28 06:43:15;;;;;;;27.97;26.17;;;20.00;55.40;;;;;;4986195;28;20794;-62
2024/02/28 06:45:42;;;;;;;26.40;24.80;;;20.00;55.30;;;;;;4983815;28;21019;-62
2024/02/28 06:48:09;;;;;;;28.87;26.83;;;20.00;55.30;;;;;;4983187;28;20872;-62
2024/02/28 06:50:35;;;;;;;27.63;25.67;;;20.00;55.10;;;;;;4983810;28;20488;-62
2024/02/28 06:53:02;;;;;;;27.03;25.40;;;20.00;55.10;;;;;;4985765;28;20486;-62
2024/02/28 06:55:29;;;;;;;28.97;25.93;;;20.00;55.00;;;;;;4985464;28;20454;-63
2024/02/28 06:57:57;;;;;;;29.07;26.77;;;20.00;55.00;;;;;;4982760;28;20914;-60
2024/02/28 07:00:24;;;;;;;27.97;26.27;;;20.00;54.90;;;;;;4982230;28;20471;-62
2024/02/28 07:02:51;;;;;;;27.87;26.20;;;20.00;54.80;;;;;;4985750;28;20971;-62
2024/02/28 07:05:18;;;;;;;27.83;25.97;;;20.00;54.80;;;;;;4985978;28;20473;-62
2024/02/28 07:07:44;;;;;;;29.83;27.93;;;20.00;54.70;;;;;;4983519;28;20456;-62
2024/02/28 07:10:11;;;;;;;28.33;26.30;;;20.00;54.70;;;;;;4982060;28;20979;-63
2024/02/28 07:12:38;;;;;;;30.30;28.50;;;20.00;54.60;;;;;;4984188;28;20459;-62
2024/02/28 07:15:07;;;;;;;29.33;27.50;;;20.00;54.50;;;;;;4985730;28;20451;-60
2024/02/28 07:17:33;;;;;;;26.60;25.03;;;20.00;54.40;;;;;;4984712;28;20435;-62
2024/02/28 07:20:00;;;;;;;28.00;26.00;;;20.00;54.40;;;;;;4981912;28;20460;-61
2024/02/28 07:22:27;;;;;;;26.87;25.37;;;20.00;54.30;;;;;;4981868;28;20878;-63
2024/02/28 07:24:54;;;;;;;28.13;26.53;;;20.00;54.20;;;;;;4984927;28;20439;-63
2024/02/28 07:27:23;;;;;;;27.43;25.90;;;20.00;54.10;;;;;;4985024;28;20446;-62
2024/02/28 07:29:49;;;;;;;27.27;25.80;;;20.00;54.10;;;;;;4981672;28;20460;-63
2024/02/28 07:32:17;;;;;;;28.00;26.40;;;20.00;54.00;;;;;;4981394;28;20439;-63
2024/02/28 07:34:44;;;;;;;26.77;25.37;;;20.00;54.00;;;;;;4984063;28;20483;-62
2024/02/28 07:37:12;;;;;;;27.10;25.50;;;20.00;53.90;;;;;;4984839;28;20818;-62
2024/02/28 07:39:39;;;;;;;28.43;26.73;;;20.10;54.00;;;;;;4983619;28;20477;-63
2024/02/28 07:42:06;;;;;;;29.27;27.57;;;20.00;53.80;;;;;;4981491;28;20869;-62
2024/02/28 07:44:33;;;;;;;28.23;26.63;;;20.00;53.80;;;;;;4982115;28;20910;-62
2024/02/28 07:47:00;;;;;;;27.90;26.00;;;20.00;53.70;;;;;;4984379;28;20930;-63
2024/02/28 07:49:28;;;;;;;27.10;25.60;;;20.00;53.70;;;;;;4984801;28;20458;-62
2024/02/28 07:51:55;;;;;;;27.97;26.27;;;20.00;53.60;;;;;;4973263;28;20455;-62
2024/02/28 07:54:21;;;;;;;28.23;26.60;;;20.00;53.60;;;;;;4981481;28;20484;-62
2024/02/28 07:56:49;;;;;;;27.07;25.47;;;20.10;53.60;;;;;;4983846;28;20443;-62
2024/02/28 07:59:16;;;;;;;27.57;25.97;;;20.00;53.50;;;;;;4984595;28;20466;-62
2024/02/28 08:01:43;;;;;;;27.60;26.00;;;20.10;53.50;;;;;;4982284;28;20447;-62
2024/02/28 08:04:09;;;;;;;27.63;26.13;;;20.00;53.30;;;;;;4981200;28;20451;-62
2024/02/28 08:06:37;;;;;;;27.73;26.20;;;20.00;53.30;;;;;;4982238;28;20448;-63
2024/02/28 08:09:05;;;;;;;28.37;26.77;;;20.00;53.30;;;;;;4985564;28;20478;-63
2024/02/28 08:11:31;;;;;;;26.73;25.43;;;20.00;53.20;;;;;;4983913;28;20499;-62
2024/02/28 08:13:58;;;;;;;27.93;26.20;;;20.10;53.20;;;;;;4981508;28;20507;-63
2024/02/28 08:16:25;;;;;;;27.30;25.90;;;20.00;53.10;;;;;;4981292;28;20458;-60
2024/02/28 08:18:51;;;;;;;28.27;26.87;;;20.10;53.10;;;;;;4984031;28;20837;-62
2024/02/28 08:21:19;;;;;;;27.97;26.57;;;20.00;53.00;;;;;;4984743;28;20446;-63
2024/02/28 08:23:47;;;;;;;28.80;27.00;;;20.00;53.00;;;;;;4982400;28;20482;-62
2024/02/28 08:26:14;;;;;;;27.53;26.13;;;20.00;52.90;;;;;;4982097;28;20818;-62
2024/02/28 08:28:41;;;;;;;28.00;26.50;;;20.00;52.90;;;;;;4982934;28;21112;-62
2024/02/28 08:31:08;;;;;;;30.90;29.20;;;20.00;52.90;;;;;;4984272;28;20454;-61
2024/02/28 08:33:35;;;;;;;29.07;27.50;;;20.00;52.80;;;;;;4984580;28;20479;-63
2024/02/28 08:36:01;;;;;;;27.97;26.40;;;20.10;52.90;;;;;;4982032;28;20447;-62
2024/02/28 08:38:28;;;;;;;29.83;28.20;;;20.00;52.80;;;;;;4981733;28;20938;-61
2024/02/28 08:40:56;;;;;;;27.53;25.90;;;20.00;52.80;;;;;;4985000;28;20454;-63
2024/02/28 08:43:23;;;;;;;27.90;26.40;;;20.00;52.70;;;;;;4985135;28;20439;-62
2024/02/28 08:45:51;;;;;;;27.50;26.00;;;20.00;52.70;;;;;;4982760;28;20451;-63
2024/02/28 08:48:18;;;;;;;28.20;26.80;;;20.00;52.70;;;;;;4981458;28;20448;-62
2024/02/28 08:50:44;;;;;;;27.30;25.90;;;20.00;52.70;;;;;;4982472;28;20824;-62
2024/02/28 08:53:11;;;;;;;29.60;27.90;;;20.10;52.70;;;;;;4984090;28;20459;-63
2024/02/28 08:55:38;;;;;;;29.03;27.53;;;20.00;53.20;;;;;;4983214;28;20479;-62
2024/02/28 08:58:06;;;;;;;28.10;26.70;;;20.00;52.60;;;;;;4981117;28;20452;-62
2024/02/28 09:00:33;;;;;;;28.00;26.60;;;20.10;52.70;;;;;;4984302;28;20475;-62
2024/02/28 09:02:59;;;;;;;28.73;26.83;;;20.00;52.60;;;;;;4988212;28;20811;-62
2024/02/28 09:05:26;;;;;;;27.30;25.90;;;20.00;52.60;;;;;;4988359;28;20447;-63
2024/02/28 09:07:54;;;;;;;29.67;28.17;;;20.00;52.50;;;;;;4985711;28;20447;-62
2024/02/28 09:10:24;;;;;;;30.43;28.83;;;20.00;52.50;;;;;;4984231;28;20920;-62
2024/02/28 09:12:50;;;;;;;29.73;28.00;;;20.00;52.50;;;;;;4987158;28;20494;-60
2024/02/28 09:15:18;;;;;;;28.60;27.00;;;20.00;52.40;;;;;;4988217;28;20475;-62
2024/02/28 09:17:45;;;;;;;27.50;26.10;;;20.10;52.50;;;;;;4986262;28;20450;-61
2024/02/28 09:20:12;;;;;;;29.50;27.80;;;20.00;52.40;;;;;;4983977;28;20471;-63
2024/02/28 09:22:40;;;;;;;28.33;26.87;;;20.00;52.40;;;;;;4986553;28;20450;-63
2024/02/28 09:25:08;;;;;;;28.63;27.13;;;20.00;52.40;;;;;;4988912;28;20497;-62
2024/02/28 09:27:35;;;;;;;28.57;27.20;;;20.00;52.30;;;;;;4988446;28;20439;-60
2024/02/28 09:30:02;;;;;;;27.67;26.10;;;20.00;52.30;;;;;;4984549;28;20487;-62
2024/02/28 09:32:30;;;;;;;27.90;26.43;;;20.10;52.40;;;;;;4984234;28;20510;-62
2024/02/28 09:34:57;;;;;;;29.00;27.47;;;20.00;52.30;;;;;;4987961;28;20486;-62
2024/02/28 09:37:24;;;;;;;28.27;26.70;;;20.00;52.30;;;;;;4987629;28;20443;-63
2024/02/28 09:39:52;;;;;;;31.07;29.17;;;20.10;52.40;;;;;;4984813;28;20467;-62
2024/02/28 09:42:19;;;;;;;28.50;27.00;;;20.00;52.30;;;;;;4984690;28;20506;-63
2024/02/28 09:44:47;;;;;;;29.60;28.10;;;20.00;52.30;;;;;;4987004;28;20447;-63
2024/02/28 09:47:14;;;;;;;28.73;27.13;;;20.00;52.30;;;;;;4988457;28;20955;-62
2024/02/28 09:49:43;;;;;;;29.37;27.67;;;20.00;52.20;;;;;;4987067;28;20465;-62
2024/02/28 09:52:09;;;;;;;30.23;28.13;;;20.00;52.20;;;;;;4984584;28;20440;-61
2024/02/28 09:54:36;;;;;;;28.20;26.63;;;20.00;52.20;;;;;;4984973;28;20898;-64
2024/02/28 09:57:05;;;;;;;28.80;27.27;;;20.00;52.20;;;;;;4988123;28;20439;-60
2024/02/28 09:59:32;;;;;;;27.13;25.83;;;20.00;52.20;;;;;;4987947;28;21002;-63
2024/02/28 10:02:00;;;;;;;28.30;26.80;;;20.00;52.20;;;;;;4984173;28;20440;-63
2024/02/28 10:04:28;;;;;;;27.80;26.30;;;20.00;52.20;;;;;;4984137;28;20444;-63
2024/02/28 10:06:56;;;;;;;27.43;25.93;;;20.00;52.20;;;;;;4986535;28;20451;-63
2024/02/28 10:09:24;;;;;;;26.33;24.93;;;20.00;52.20;;;;;;4987011;28;20482;-63
2024/02/28 10:11:50;;;;;;;26.83;25.37;;;20.00;52.20;;;;;;4984964;28;20542;-64
2024/02/28 10:14:20;;;;;;;27.43;25.93;;;20.00;52.20;;;;;;4984157;28;20849;-62
2024/02/28 10:16:47;;;;;;;27.20;25.77;;;20.00;52.10;;;;;;4985395;28;20475;-63
2024/02/28 10:19:13;;;;;;;27.70;26.30;;;20.00;52.20;;;;;;4986626;28;20474;-63
2024/02/28 10:21:40;;;;;;;28.27;26.87;;;20.10;52.20;;;;;;4985371;28;20454;-62
2024/02/28 10:24:08;;;;;;;28.30;26.73;;;20.10;52.20;;;;;;4983358;28;20447;-63
2024/02/28 10:26:43;;;;;;;28.37;26.90;;;20.10;52.20;;;;;;4984139;28;20444;-64
2024/02/28 10:29:10;;;;;;;26.83;25.43;;;20.00;52.10;;;;;;4977369;28;20462;-62
2024/02/28 10:31:37;;;;;;;28.33;26.90;;;20.10;52.20;;;;;;4983444;28;20526;-62
2024/02/28 10:34:05;;;;;;;28.13;26.53;;;20.10;52.20;;;;;;4986272;28;20525;-63
2024/02/28 10:36:33;;;;;;;27.73;26.33;;;20.10;52.20;;;;;;4986165;28;20454;-63
2024/02/28 10:39:01;;;;;;;27.37;25.97;;;20.00;52.10;;;;;;4983080;28;20463;-63
2024/02/28 10:41:29;;;;;;;27.47;26.10;;;20.00;52.00;;;;;;4982378;28;20475;-64
2024/02/28 10:43:57;;;;;;;27.50;26.10;;;20.00;52.00;;;;;;4986012;28;20443;-63
2024/02/28 10:46:24;;;;;;;28.00;26.53;;;20.10;52.10;;;;;;4986441;28;20943;-63
2024/02/28 10:48:52;;;;;;;27.23;25.90;;;20.10;52.10;;;;;;4983841;28;20462;-61
2024/02/28 10:51:24;;;;;;;28.27;26.77;;;20.10;52.10;;;;;;4982477;28;20451;-63
2024/02/28 10:53:56;;;;;;;27.63;26.10;;;20.00;52.00;;;;;;4984389;28;20444;-63
2024/02/28 10:56:23;;;;;;;28.57;27.00;;;20.00;52.00;;;;;;4985856;28;20454;-61
2024/02/28 10:58:53;;;;;;;26.67;25.13;;;20.10;52.10;;;;;;4984073;28;20467;-64
2024/02/28 11:01:21;;;;;;;26.73;25.43;;;20.00;52.00;;;;;;4982304;28;20451;-63
2024/02/28 11:03:48;;;;;;;26.43;25.13;;;20.00;52.00;;;;;;4983754;28;20864;-62
2024/02/28 11:06:19;;;;;;;27.47;26.07;;;20.00;51.90;;;;;;4985764;28;20445;-62
2024/02/28 11:08:47;;;;;;;26.43;25.13;;;20.00;51.90;;;;;;4984780;28;21023;-63
2024/02/28 11:11:15;;;;;;;27.30;25.80;;;20.00;51.90;;;;;;4982407;28;20503;-62
2024/02/28 11:13:54;;;;;;;25.63;24.43;;;20.00;51.90;;;;;;4983000;28;20503;-62
2024/02/28 11:16:27;;;;;;;28.43;26.93;;;20.00;51.90;;;;;;4985719;28;20447;-62
2024/02/28 11:18:54;;;;;;;30.60;28.83;;;20.00;51.90;;;;;;4983537;28;20517;-63
2024/02/28 11:21:25;;;;;;;27.03;25.80;;;20.00;51.90;;;;;;4981077;28;20460;-63
2024/02/28 11:23:52;;;;;;;27.70;26.30;;;20.00;52.00;;;;;;4983770;28;20448;-63
2024/02/28 11:26:20;;;;;;;27.43;26.03;;;20.00;51.90;;;;;;4985214;28;20446;-63
2024/02/28 11:28:47;;;;;;;29.00;27.50;;;20.10;52.10;;;;;;4983888;28;20485;-63
2024/02/28 11:31:15;;;;;;;28.90;27.50;;;20.00;52.00;;;;;;4981194;28;20455;-62
2024/02/28 11:33:42;;;;;;;27.20;25.70;;;20.10;52.10;;;;;;4981753;28;20443;-62
2024/02/28 11:36:09;;;;;;;27.77;26.33;;;20.10;52.20;;;;;;4984594;28;20485;-63
2024/02/28 11:38:37;;;;;;;26.83;25.50;;;20.10;52.20;;;;;;4984581;28;21021;-62
2024/02/28 11:41:04;;;;;;;28.03;26.53;;;20.10;52.20;;;;;;4973041;28;20451;-63
2024/02/28 11:43:32;;;;;;;26.50;25.10;;;20.10;52.20;;;;;;4981361;28;20448;-62
2024/02/28 11:45:59;;;;;;;29.23;27.70;;;20.10;52.20;;;;;;4983730;28;20475;-63
2024/02/28 11:48:28;;;;;;;28.83;27.17;;;20.10;52.20;;;;;;4984634;28;20454;-62
2024/02/28 11:50:55;;;;;;;27.00;25.80;;;20.10;52.20;;;;;;4982097;28;20443;-63
2024/02/28 11:53:22;;;;;;;28.23;26.73;;;20.10;52.20;;;;;;4981328;28;20447;-63
2024/02/28 11:55:49;;;;;;;27.90;26.43;;;20.10;52.20;;;;;;4982087;28;21055;-62
2024/02/28 11:58:16;;;;;;;26.47;25.17;;;20.20;52.30;;;;;;4984467;28;20447;-62
2024/02/28 12:00:49;;;;;;;27.40;25.90;;;20.10;52.80;;;;;;4983520;28;20808;-63
2024/02/28 12:03:21;;;;;;;25.70;24.50;;;20.20;52.30;;;;;;4981017;28;20451;-62
2024/02/28 12:05:49;;;;;;;27.73;26.33;;;20.10;52.20;;;;;;4981783;28;20824;-63
2024/02/28 12:08:17;;;;;;;27.37;25.97;;;20.10;52.20;;;;;;4984089;28;20485;-62
2024/02/28 12:10:44;;;;;;;26.57;25.27;;;20.20;52.30;;;;;;4983385;28;20439;-61
2024/02/28 12:13:12;;;;;;;26.40;25.10;;;20.20;52.20;;;;;;4980918;28;20452;-63
2024/02/28 12:15:41;;;;;;;25.93;24.73;;;20.20;52.20;;;;;;4980879;28;21016;-63
2024/02/28 12:18:09;;;;;;;25.67;24.27;;;20.20;52.20;;;;;;4973121;28;20452;-62
2024/02/28 12:20:37;;;;;;;26.70;25.27;;;20.20;52.20;;;;;;4980612;28;20468;-61
2024/02/28 12:23:05;;;;;;;25.20;24.10;;;20.20;52.20;;;;;;4984016;28;20440;-62
2024/02/28 12:25:32;;;;;;;26.83;25.53;;;20.20;52.10;;;;;;4984367;28;20435;-62
2024/02/28 12:27:58;;;;;;;27.27;25.97;;;20.20;52.10;;;;;;4982203;28;20940;-62